Terminal Aerodrome Forecast
Issued by NWS Wichita, KS

Home | Current Version | Previous Version | Text Only | Print | Product List | Glossary On
Versions: 1 2 3 4 5 6 7 8 9 10 11 12 13
000
FTUS43 KICT 051122
TAFICT
TAF
KICT 051122Z 0512/0612 16010KT P6SM BKN080 BKN250
     FM051500 17016G23KT P6SM SCT050 BKN150
     FM052200 16015G22KT P6SM VCTS SCT050CB BKN080
     FM060200 17015KT P6SM VCTS BKN035CB=

USA.gov is the U.S. government's official web portal to all federal, state and local government web resources and services.